Time;durP1;ratioP1;P1;durP2;ratioP2;P2;SDS_P1;SDS_P2;PMS_P1;PMS_P2;Temp;Humidity;BMP_temperature;BMP_pressure;BME280_temperature;BME280_humidity;BME280_pressure;Samples;Min_cycle;Max_cycle;Signal;HPM_P1;HPM_P2
2020/12/03 00:01:03;;;;;;;13.35;8.70;;;17.30;53.00;;;;;;5031952;28;20163;-89
2020/12/03 00:03:33;;;;;;;14.35;8.68;;;17.30;53.00;;;;;;5032301;28;20576;-89
2020/12/03 00:06:04;;;;;;;13.57;9.10;;;17.30;53.70;;;;;;5066603;28;20232;-89
2020/12/03 00:08:32;;;;;;;12.93;8.23;;;17.30;52.90;;;;;;5073486;28;20181;-89
2020/12/03 00:11:00;;;;;;;13.63;8.70;;;17.30;53.00;;;;;;5056080;28;20165;-90
2020/12/03 00:13:36;;;;;;;13.18;8.15;;;17.30;52.80;;;;;;5055657;28;20166;-89
2020/12/03 00:16:03;;;;;;;13.52;8.63;;;17.30;52.90;;;;;;5071957;28;20160;-89
2020/12/03 00:18:31;;;;;;;11.57;7.47;;;17.30;52.90;;;;;;5072347;28;20153;-89
2020/12/03 00:20:58;;;;;;;13.63;8.38;;;17.30;53.00;;;;;;5055445;28;20168;-89
2020/12/03 00:23:25;;;;;;;12.63;8.05;;;17.30;53.00;;;;;;5072127;28;20227;-89
2020/12/03 00:25:52;;;;;;;12.18;8.15;;;17.30;52.90;;;;;;5055035;28;20674;-89
2020/12/03 00:28:20;;;;;;;12.65;8.65;;;17.30;53.10;;;;;;5055986;28;20166;-90
2020/12/03 00:30:46;;;;;;;12.48;8.55;;;17.30;53.20;;;;;;5055041;28;20165;-88
2020/12/03 00:33:17;;;;;;;13.00;8.57;;;17.20;53.20;;;;;;5071913;28;20145;-89
2020/12/03 00:35:45;;;;;;;13.63;9.07;;;17.20;53.10;;;;;;5040471;28;20257;-89
2020/12/03 00:38:12;;;;;;;13.60;8.32;;;17.30;53.20;;;;;;5056034;28;20166;-89
2020/12/03 00:40:39;;;;;;;14.30;8.82;;;17.30;53.10;;;;;;5071757;28;20208;-89
2020/12/03 00:43:06;;;;;;;12.00;8.43;;;17.30;53.10;;;;;;5054914;28;20166;-89
2020/12/03 00:45:33;;;;;;;13.90;8.88;;;17.20;52.90;;;;;;5055119;28;20189;-89
2020/12/03 00:47:59;;;;;;;13.80;8.98;;;17.20;53.10;;;;;;5054927;28;20157;-89
2020/12/03 00:50:26;;;;;;;13.38;8.90;;;17.20;53.10;;;;;;5055316;28;20644;-89
2020/12/03 00:53:00;;;;;;;12.20;8.05;;;17.20;53.00;;;;;;5072212;28;20185;-89
2020/12/03 00:55:28;;;;;;;14.70;8.48;;;17.20;52.90;;;;;;5054828;28;20722;-90
2020/12/03 00:57:55;;;;;;;15.32;9.02;;;17.20;53.20;;;;;;5054826;28;20214;-89
2020/12/03 01:00:21;;;;;;;13.88;9.27;;;17.20;53.40;;;;;;5054822;28;20216;-89
2020/12/03 01:02:49;;;;;;;13.30;8.65;;;17.20;53.30;;;;;;5071914;28;20211;-89
2020/12/03 01:05:15;;;;;;;12.02;8.63;;;17.20;53.20;;;;;;5054598;28;20213;-90
2020/12/03 01:07:41;;;;;;;12.75;8.38;;;17.20;53.20;;;;;;5038188;28;20638;-89
2020/12/03 01:10:24;;;;;;;12.65;8.38;;;17.20;53.20;;;;;;5054674;28;20524;-89
2020/12/03 01:12:51;;;;;;;14.90;9.75;;;17.20;53.20;;;;;;5057628;28;20237;-89
2020/12/03 01:15:26;;;;;;;13.32;8.70;;;17.20;53.20;;;;;;5059168;28;20173;-89
2020/12/03 01:17:53;;;;;;;13.88;8.63;;;17.20;53.20;;;;;;5075236;28;20196;-90
2020/12/03 01:20:22;;;;;;;13.00;8.40;;;17.20;53.20;;;;;;5058159;28;20546;-89
2020/12/03 01:22:57;;;;;;;16.60;8.60;;;17.20;53.10;;;;;;5075022;28;20150;-90
2020/12/03 01:25:24;;;;;;;13.73;8.52;;;17.20;53.20;;;;;;5058045;28;20204;-89
2020/12/03 01:27:51;;;;;;;14.40;8.88;;;17.20;53.00;;;;;;5058910;28;20223;-89
2020/12/03 01:30:26;;;;;;;12.13;8.15;;;17.30;53.00;;;;;;5058059;28;20165;-89
2020/12/03 01:32:53;;;;;;;12.63;8.45;;;17.30;53.00;;;;;;5075390;28;20157;-89
2020/12/03 01:35:20;;;;;;;14.80;8.85;;;17.20;53.10;;;;;;5059114;28;20260;-89
2020/12/03 01:38:06;;;;;;;15.60;8.85;;;17.20;53.20;;;;;;5058649;28;20219;-89
2020/12/03 01:40:33;;;;;;;13.02;8.43;;;17.20;53.40;;;;;;5073228;28;20162;-89
2020/12/03 01:43:08;;;;;;;11.85;8.32;;;17.10;53.20;;;;;;5057847;28;20639;-90
2020/12/03 01:45:52;;;;;;;12.70;8.25;;;17.20;53.20;;;;;;5057638;28;20254;-89
2020/12/03 01:48:46;;;;;;;12.15;7.95;;;17.10;53.30;;;;;;5074411;28;20171;-89
2020/12/03 01:51:36;;;;;;;12.18;8.35;;;17.20;53.30;;;;;;5074341;28;20535;-90
2020/12/03 01:54:13;;;;;;;13.65;8.48;;;17.10;53.40;;;;;;5074562;28;20169;-89
2020/12/03 01:56:58;;;;;;;12.98;8.45;;;17.20;53.20;;;;;;5074321;28;20149;-89
2020/12/03 01:59:42;;;;;;;13.23;7.93;;;17.10;53.40;;;;;;5074479;28;20246;-89
2020/12/03 02:02:09;;;;;;;13.20;8.30;;;17.20;53.40;;;;;;5074135;28;20165;-89
2020/12/03 02:04:35;;;;;;;11.32;7.90;;;17.10;53.20;;;;;;5057656;28;20221;-89
2020/12/03 02:07:10;;;;;;;12.73;8.55;;;17.20;53.20;;;;;;5057403;28;20160;-89
2020/12/03 02:09:36;;;;;;;14.38;9.23;;;17.20;53.20;;;;;;5074076;28;20214;-89
2020/12/03 02:12:03;;;;;;;14.15;8.40;;;17.10;53.40;;;;;;5074627;28;20201;-89
2020/12/03 02:14:37;;;;;;;13.10;8.52;;;17.20;53.30;;;;;;5073991;28;20612;-89
2020/12/03 02:17:12;;;;;;;12.27;8.18;;;17.20;53.30;;;;;;5057230;28;20173;-89
2020/12/03 02:19:40;;;;;;;11.68;8.02;;;17.20;53.20;;;;;;5073976;28;20204;-90
2020/12/03 02:22:09;;;;;;;12.63;8.25;;;17.20;53.30;;;;;;5073711;28;20201;-89
2020/12/03 02:24:39;;;;;;;13.48;8.43;;;17.10;53.30;;;;;;5057342;28;20193;-90
2020/12/03 02:27:14;;;;;;;13.95;8.88;;;17.10;53.40;;;;;;5057259;28;20169;-89
2020/12/03 02:29:40;;;;;;;13.30;8.20;;;17.10;53.30;;;;;;5057570;28;20612;-89
2020/12/03 02:32:07;;;;;;;11.95;8.07;;;17.10;53.30;;;;;;5057621;28;20165;-89
2020/12/03 02:34:35;;;;;;;12.52;7.97;;;17.10;53.30;;;;;;5056785;28;20189;-89
2020/12/03 02:37:01;;;;;;;13.13;8.40;;;17.10;53.60;;;;;;5073687;28;20169;-89
2020/12/03 02:39:29;;;;;;;11.95;7.65;;;17.10;53.50;;;;;;5057141;28;20234;-89
2020/12/03 02:41:57;;;;;;;13.35;8.68;;;17.10;53.40;;;;;;5073705;28;20153;-89
2020/12/03 02:44:25;;;;;;;12.98;8.25;;;17.10;53.50;;;;;;5057806;28;20197;-90
2020/12/03 02:46:52;;;;;;;13.68;8.43;;;17.10;53.40;;;;;;5073312;28;20158;-89
2020/12/03 02:49:19;;;;;;;13.52;8.75;;;17.10;53.50;;;;;;5056454;28;20157;-89
2020/12/03 02:51:47;;;;;;;11.52;8.18;;;17.10;53.40;;;;;;5056579;28;20173;-90
2020/12/03 02:54:22;;;;;;;12.15;8.25;;;17.10;53.50;;;;;;5056899;28;20157;-89
2020/12/03 02:56:48;;;;;;;11.95;8.52;;;17.10;53.50;;;;;;5057195;28;20188;-89
2020/12/03 02:59:15;;;;;;;12.10;8.20;;;17.10;53.50;;;;;;5056878;28;20503;-89
2020/12/03 03:01:49;;;;;;;12.18;8.30;;;17.10;53.60;;;;;;5056521;28;20204;-90
2020/12/03 03:04:15;;;;;;;13.95;8.55;;;17.10;53.40;;;;;;5057064;28;20216;-89
2020/12/03 03:06:42;;;;;;;13.40;8.55;;;17.10;53.50;;;;;;5040031;28;20223;-89
2020/12/03 03:09:09;;;;;;;12.65;8.00;;;17.10;53.40;;;;;;5056509;28;20196;-89
2020/12/03 03:11:36;;;;;;;13.07;8.50;;;17.10;53.30;;;;;;5056106;28;20200;-89
2020/12/03 03:14:05;;;;;;;12.27;8.38;;;17.10;53.40;;;;;;5039628;28;20632;-90
2020/12/03 03:16:33;;;;;;;11.90;8.30;;;17.10;53.40;;;;;;5055989;28;20230;-90
2020/12/03 03:18:59;;;;;;;13.73;8.43;;;17.10;53.30;;;;;;5072959;28;20634;-89
2020/12/03 03:21:34;;;;;;;14.20;9.07;;;17.10;53.50;;;;;;5056206;28;20215;-89
2020/12/03 03:24:02;;;;;;;13.20;8.50;;;17.10;53.40;;;;;;5055846;28;20208;-90
2020/12/03 03:26:28;;;;;;;12.48;8.40;;;17.10;53.40;;;;;;5072548;28;20207;-89
2020/12/03 03:28:56;;;;;;;11.77;8.07;;;17.10;53.30;;;;;;5056272;28;20210;-89
2020/12/03 03:31:23;;;;;;;11.18;7.85;;;17.10;53.40;;;;;;5056609;28;20166;-90
2020/12/03 03:33:49;;;;;;;13.23;8.32;;;17.10;53.40;;;;;;5072741;28;20157;-89
2020/12/03 03:36:17;;;;;;;12.20;8.10;;;17.10;53.30;;;;;;5055606;28;20264;-90
2020/12/03 03:38:43;;;;;;;14.18;8.57;;;17.10;53.40;;;;;;5055769;28;20538;-89
2020/12/03 03:41:18;;;;;;;12.18;8.88;;;17.10;53.40;;;;;;5056034;28;20637;-89
2020/12/03 03:43:44;;;;;;;13.45;8.25;;;17.10;54.10;;;;;;5055538;28;20193;-89
2020/12/03 03:46:11;;;;;;;12.10;8.15;;;17.10;53.30;;;;;;5039299;28;20192;-89
2020/12/03 03:48:36;;;;;;;12.05;8.05;;;17.00;53.50;;;;;;5039031;28;20168;-89
2020/12/03 03:51:11;;;;;;;13.05;8.18;;;17.10;53.40;;;;;;5039818;28;20162;-90
2020/12/03 03:53:38;;;;;;;12.98;7.80;;;17.10;53.50;;;;;;5055558;28;20562;-89
2020/12/03 03:56:04;;;;;;;11.60;8.60;;;17.10;53.50;;;;;;5072157;28;20663;-89
2020/12/03 03:58:39;;;;;;;11.07;7.40;;;17.10;53.60;;;;;;5056274;28;20177;-89
2020/12/03 04:01:06;;;;;;;12.95;7.80;;;17.10;53.20;;;;;;5072378;28;20204;-89
2020/12/03 04:03:35;;;;;;;11.95;8.18;;;17.10;53.50;;;;;;5055625;28;20173;-90
2020/12/03 04:06:02;;;;;;;12.27;8.23;;;17.10;53.40;;;;;;5055037;28;20240;-89
2020/12/03 04:08:28;;;;;;;14.07;8.73;;;17.10;53.30;;;;;;5071957;28;20158;-89
2020/12/03 04:10:56;;;;;;;11.82;8.13;;;17.00;53.60;;;;;;5056076;28;20256;-90
2020/12/03 04:13:24;;;;;;;13.10;8.38;;;17.00;53.30;;;;;;5055271;28;20211;-89
2020/12/03 04:15:50;;;;;;;13.90;8.55;;;17.00;53.50;;;;;;5055120;28;20213;-89
2020/12/03 04:18:25;;;;;;;11.13;7.47;;;17.00;53.50;;;;;;5039472;28;20169;-90
2020/12/03 04:20:53;;;;;;;12.75;8.10;;;17.00;53.50;;;;;;5040770;28;20256;-90
2020/12/03 04:23:19;;;;;;;13.52;8.63;;;17.00;53.20;;;;;;5039700;28;20200;-90
2020/12/03 04:25:47;;;;;;;12.65;8.40;;;17.00;53.50;;;;;;5055376;28;20193;-89
2020/12/03 04:28:13;;;;;;;12.73;8.27;;;17.00;53.30;;;;;;5055722;28;20681;-89
2020/12/03 04:30:38;;;;;;;11.32;7.78;;;17.00;53.40;;;;;;5038595;28;20165;-89
2020/12/03 04:33:04;;;;;;;12.40;8.25;;;17.00;53.40;;;;;;5055449;28;20146;-89
2020/12/03 04:35:31;;;;;;;13.07;8.27;;;17.00;53.30;;;;;;5039326;28;20211;-90
2020/12/03 04:37:58;;;;;;;12.05;8.23;;;17.00;53.40;;;;;;5039052;28;20264;-89
2020/12/03 04:40:37;;;;;;;14.90;8.52;;;17.00;53.40;;;;;;5072292;28;20300;-89
2020/12/03 04:43:19;;;;;;;11.48;7.97;;;17.00;53.30;;;;;;5038624;28;20650;-90
2020/12/03 04:45:51;;;;;;;12.77;8.05;;;17.00;53.60;;;;;;5056596;28;20295;-89
2020/12/03 04:48:39;;;;;;;12.63;8.20;;;17.00;53.40;;;;;;5042829;28;20165;-90
2020/12/03 04:51:32;;;;;;;13.10;8.07;;;17.00;53.20;;;;;;5076575;28;20496;-89
2020/12/03 04:54:15;;;;;;;12.27;7.95;;;17.10;53.50;;;;;;5045098;28;20570;-90
2020/12/03 04:57:22;;;;;;;11.18;7.45;;;17.10;52.80;;;;;;5075298;28;20276;-89
2020/12/03 04:59:54;;;;;;;11.20;7.38;;;17.20;52.90;;;;;;5076294;28;20191;-89
2020/12/03 05:02:50;;;;;;;10.50;7.40;;;17.20;51.80;;;;;;5058974;28;20180;-89
2020/12/03 05:05:26;;;;;;;11.20;7.55;;;17.30;51.80;;;;;;5074976;28;20213;-89
2020/12/03 05:08:09;;;;;;;11.43;7.75;;;17.30;51.90;;;;;;5058396;28;20169;-89
2020/12/03 05:10:38;;;;;;;11.95;8.25;;;17.30;51.70;;;;;;5042868;28;20184;-89
2020/12/03 05:13:13;;;;;;;12.10;7.50;;;17.30;51.60;;;;;;5059179;28;20169;-89
2020/12/03 05:15:39;;;;;;;11.73;7.55;;;17.30;51.60;;;;;;5042587;28;20180;-89
2020/12/03 05:18:11;;;;;;;11.18;7.57;;;17.30;51.50;;;;;;5042035;28;20176;-89
2020/12/03 05:20:50;;;;;;;11.13;7.47;;;17.30;51.20;;;;;;5075236;28;20299;-90
2020/12/03 05:23:32;;;;;;;10.93;7.68;;;17.40;51.10;;;;;;5058295;28;20173;-89
2020/12/03 05:26:11;;;;;;;11.13;7.60;;;17.30;51.70;;;;;;5043202;28;20208;-89
2020/12/03 05:29:03;;;;;;;12.15;7.85;;;17.30;51.20;;;;;;5058165;28;20256;-90
2020/12/03 05:31:43;;;;;;;12.30;7.90;;;17.30;51.00;;;;;;5058638;28;20173;-90
2020/12/03 05:34:13;;;;;;;11.90;7.68;;;17.30;51.00;;;;;;5042788;28;20261;-89
2020/12/03 05:36:46;;;;;;;11.85;7.72;;;17.30;51.00;;;;;;5058281;28;20173;-89
2020/12/03 05:39:13;;;;;;;10.07;7.43;;;17.30;51.00;;;;;;5058720;28;20543;-89
2020/12/03 05:41:55;;;;;;;10.70;7.32;;;17.30;50.80;;;;;;5041690;28;20170;-89
2020/12/03 05:44:31;;;;;;;10.30;7.20;;;17.30;50.60;;;;;;5074264;28;20565;-89
2020/12/03 05:46:58;;;;;;;11.80;7.75;;;17.40;50.30;;;;;;5074796;28;20149;-89
2020/12/03 05:49:25;;;;;;;10.77;7.50;;;17.40;50.30;;;;;;5057854;28;20165;-89
2020/12/03 05:52:11;;;;;;;11.60;7.78;;;17.40;50.70;;;;;;5058081;28;20199;-89
2020/12/03 05:54:38;;;;;;;11.02;7.57;;;17.30;50.60;;;;;;5041635;28;20173;-89
2020/12/03 05:57:11;;;;;;;10.20;7.38;;;17.30;50.70;;;;;;5057331;28;20149;-89
2020/12/03 05:59:37;;;;;;;11.45;7.93;;;17.30;50.60;;;;;;5057839;28;20199;-89
2020/12/03 06:02:16;;;;;;;10.63;7.43;;;17.40;50.70;;;;;;5040886;28;20255;-89
2020/12/03 06:04:47;;;;;;;10.73;7.65;;;17.30;50.50;;;;;;5041038;28;20228;-89
2020/12/03 06:07:20;;;;;;;10.98;7.57;;;17.30;50.70;;;;;;5041116;28;20256;-89
2020/12/03 06:10:25;;;;;;;10.32;7.30;;;17.30;50.30;;;;;;5073699;28;20605;-89
2020/12/03 06:13:35;;;;;;;9.82;7.15;;;17.30;50.30;;;;;;5002962;28;20182;-90
2020/12/03 06:16:03;;;;;;;10.55;7.20;;;17.40;50.00;;;;;;5016623;28;20178;-89
2020/12/03 06:18:30;;;;;;;11.23;7.50;;;17.40;50.10;;;;;;4984137;28;20182;-89
2020/12/03 06:21:21;;;;;;;10.73;7.40;;;17.30;50.20;;;;;;5016308;28;20172;-89
2020/12/03 06:24:10;;;;;;;10.02;7.43;;;17.40;50.00;;;;;;5000033;28;20190;-89
2020/12/03 06:27:05;;;;;;;10.48;7.13;;;17.30;50.20;;;;;;5000031;28;20264;-90
2020/12/03 06:29:53;;;;;;;10.30;7.05;;;17.30;50.20;;;;;;5002214;28;20179;-90
2020/12/03 06:32:49;;;;;;;9.23;6.97;;;17.30;50.20;;;;;;4986127;28;20206;-90
2020/12/03 06:35:33;;;;;;;9.60;7.18;;;17.30;49.50;;;;;;5000883;28;20174;-89
2020/12/03 06:38:31;;;;;;;10.20;7.30;;;17.30;49.80;;;;;;5016071;28;20178;-90
2020/12/03 06:41:25;;;;;;;8.98;6.93;;;17.40;49.70;;;;;;5015982;28;20709;-89
2020/12/03 06:43:53;;;;;;;11.75;7.55;;;17.30;50.10;;;;;;5015687;28;20190;-89
2020/12/03 06:46:55;;;;;;;10.80;7.68;;;17.30;49.40;;;;;;5000346;28;20190;-89
2020/12/03 06:49:44;;;;;;;10.23;7.13;;;17.20;49.80;;;;;;5029556;28;20226;-90
2020/12/03 06:52:33;;;;;;;10.70;7.47;;;17.30;50.00;;;;;;5056573;28;20169;-90
2020/12/03 06:55:11;;;;;;;10.60;7.22;;;17.30;50.00;;;;;;5073295;28;20169;-90
2020/12/03 06:58:03;;;;;;;11.57;7.90;;;17.30;49.80;;;;;;5073561;28;20291;-90
2020/12/03 07:01:11;;;;;;;10.30;7.63;;;17.30;49.60;;;;;;5073888;28;20165;-90
2020/12/03 07:04:05;;;;;;;10.65;7.10;;;17.30;49.80;;;;;;5073762;28;20242;-90
2020/12/03 07:07:18;;;;;;;9.68;6.95;;;17.30;49.20;;;;;;5073197;28;20213;-89
2020/12/03 07:10:23;;;;;;;9.82;6.80;;;17.30;49.60;;;;;;4995195;28;20176;-90
2020/12/03 07:13:29;;;;;;;9.98;7.28;;;17.30;49.30;;;;;;4996098;28;20168;-90
2020/12/03 07:15:58;;;;;;;10.25;7.35;;;17.30;49.30;;;;;;4996352;28;20175;-90
2020/12/03 07:19:02;;;;;;;9.55;7.07;;;17.40;49.70;;;;;;4996254;28;20190;-90
2020/12/03 07:21:46;;;;;;;9.63;7.25;;;17.30;49.80;;;;;;5012226;28;20553;-90
2020/12/03 07:24:24;;;;;;;10.70;7.38;;;17.40;49.90;;;;;;4980592;28;20211;-88
2020/12/03 07:27:00;;;;;;;11.23;7.03;;;17.40;50.00;;;;;;4981133;28;20186;-88
2020/12/03 07:29:51;;;;;;;10.77;7.40;;;17.40;49.50;;;;;;5012016;28;20155;-88
2020/12/03 07:32:38;;;;;;;9.73;6.75;;;17.50;49.40;;;;;;4998557;28;20190;-88
2020/12/03 07:35:22;;;;;;;9.98;7.20;;;17.30;49.40;;;;;;5011676;28;20175;-88
2020/12/03 07:38:05;;;;;;;9.88;7.25;;;17.40;49.40;;;;;;5011998;28;20160;-88
2020/12/03 07:40:32;;;;;;;10.98;7.22;;;17.30;49.40;;;;;;4995690;28;20185;-88
2020/12/03 07:43:03;;;;;;;9.88;7.18;;;17.20;49.50;;;;;;4995719;28;20246;-88
2020/12/03 07:45:44;;;;;;;9.70;7.03;;;17.30;49.30;;;;;;5008667;28;20292;-88
2020/12/03 07:48:19;;;;;;;11.18;7.80;;;17.30;49.30;;;;;;5072750;28;20145;-88
2020/12/03 07:50:51;;;;;;;9.52;7.30;;;17.30;49.20;;;;;;5072165;28;20240;-88
2020/12/03 07:53:16;;;;;;;11.30;7.40;;;17.30;49.20;;;;;;5039462;28;20177;-88
2020/12/03 07:55:42;;;;;;;10.90;7.50;;;17.30;49.10;;;;;;5072257;28;20184;-88
2020/12/03 07:58:28;;;;;;;10.65;7.78;;;17.30;49.20;;;;;;5072082;28;20567;-87
2020/12/03 08:00:54;;;;;;;9.43;7.15;;;17.20;49.00;;;;;;5071993;28;20177;-88
2020/12/03 08:03:42;;;;;;;10.55;7.60;;;17.30;49.30;;;;;;5072895;28;20241;-89
2020/12/03 08:06:12;;;;;;;10.52;7.38;;;17.30;49.20;;;;;;5070947;28;20695;-86
2020/12/03 08:08:39;;;;;;;9.50;7.22;;;17.20;49.30;;;;;;5071596;28;20596;-87
2020/12/03 08:11:06;;;;;;;11.20;7.50;;;17.20;49.10;;;;;;5070418;28;20149;-86
2020/12/03 08:13:41;;;;;;;9.60;7.28;;;17.20;49.30;;;;;;5072188;28;20154;-87
2020/12/03 08:16:12;;;;;;;10.02;7.25;;;17.20;49.20;;;;;;5072107;28;20615;-88
2020/12/03 08:18:57;;;;;;;10.27;7.45;;;17.20;49.20;;;;;;5055496;28;20179;-87
2020/12/03 08:21:44;;;;;;;10.13;7.55;;;17.30;49.00;;;;;;5074593;28;20181;-87
2020/12/03 08:24:26;;;;;;;10.93;7.70;;;17.20;49.70;;;;;;5072218;28;20196;-87
2020/12/03 08:27:15;;;;;;;10.98;7.45;;;17.30;48.80;;;;;;5076145;28;20157;-87
2020/12/03 08:29:41;;;;;;;10.38;7.30;;;17.30;48.70;;;;;;5066883;28;20557;-87
2020/12/03 08:32:07;;;;;;;10.63;7.75;;;17.30;48.90;;;;;;5075569;28;20164;-87
2020/12/03 08:34:38;;;;;;;10.63;7.70;;;17.20;48.90;;;;;;5076998;28;20638;-87
2020/12/03 08:37:24;;;;;;;9.98;6.93;;;17.20;48.80;;;;;;5058884;28;20188;-87
2020/12/03 08:39:51;;;;;;;9.40;6.88;;;17.20;48.70;;;;;;5072243;28;20303;-87
2020/12/03 08:42:18;;;;;;;10.77;7.40;;;17.20;48.70;;;;;;5039468;28;20260;-88
2020/12/03 08:44:46;;;;;;;12.00;8.32;;;17.30;48.70;;;;;;5039147;28;20200;-89
2020/12/03 08:47:34;;;;;;;10.45;7.13;;;17.30;48.70;;;;;;5040027;28;20253;-88
2020/12/03 08:50:13;;;;;;;10.43;7.20;;;17.30;48.80;;;;;;5057201;28;20154;-89
2020/12/03 08:52:40;;;;;;;9.88;7.38;;;17.30;48.20;;;;;;5039926;28;20559;-89
2020/12/03 08:55:06;;;;;;;10.25;7.28;;;17.40;48.20;;;;;;5040475;28;20173;-89
2020/12/03 08:57:39;;;;;;;10.95;7.35;;;17.30;48.40;;;;;;5040249;28;20166;-89
2020/12/03 09:00:17;;;;;;;10.45;7.25;;;17.40;48.00;;;;;;5040997;28;20269;-89
2020/12/03 09:02:43;;;;;;;12.10;7.50;;;17.40;48.20;;;;;;5056546;28;20154;-88
2020/12/03 09:05:09;;;;;;;10.38;7.22;;;17.40;48.20;;;;;;5047605;28;20213;-88
2020/12/03 09:07:57;;;;;;;14.70;7.60;;;17.40;48.50;;;;;;5074954;28;20170;-88
2020/12/03 09:10:23;;;;;;;17.08;7.03;;;17.30;48.00;;;;;;5072810;28;20580;-89
2020/12/03 09:12:50;;;;;;;11.55;7.47;;;17.30;48.30;;;;;;5058369;28;20177;-88
2020/12/03 09:15:18;;;;;;;9.52;7.38;;;17.40;48.30;;;;;;5058410;28;20268;-89
2020/12/03 09:17:55;;;;;;;12.52;7.13;;;17.40;48.20;;;;;;5074528;28;20214;-88
2020/12/03 09:20:21;;;;;;;11.63;6.90;;;17.40;48.50;;;;;;5057899;28;20283;-88
2020/12/03 09:22:47;;;;;;;11.32;7.55;;;17.40;48.10;;;;;;5074930;28;20210;-88
2020/12/03 09:25:13;;;;;;;14.80;7.18;;;17.40;48.10;;;;;;5058297;28;20201;-87
2020/12/03 09:27:47;;;;;;;10.68;7.07;;;17.40;48.30;;;;;;5058082;28;20173;-87
2020/12/03 09:30:25;;;;;;;9.45;7.20;;;17.50;47.90;;;;;;5073596;28;20150;-88
2020/12/03 09:33:02;;;;;;;10.13;7.40;;;17.40;47.90;;;;;;5056875;28;20169;-87
2020/12/03 09:35:30;;;;;;;11.27;7.50;;;17.50;48.00;;;;;;5059929;28;20655;-88
2020/12/03 09:38:16;;;;;;;11.40;7.25;;;17.50;47.70;;;;;;5075922;28;20569;-88
2020/12/03 09:40:57;;;;;;;14.85;7.22;;;17.50;47.60;;;;;;5074503;28;20206;-87
2020/12/03 09:43:23;;;;;;;12.95;7.43;;;17.50;47.50;;;;;;5074799;28;20174;-88
2020/12/03 09:45:54;;;;;;;11.52;7.38;;;17.60;47.60;;;;;;5058904;28;20208;-87
2020/12/03 09:48:30;;;;;;;12.05;7.53;;;17.60;47.40;;;;;;5074356;28;20160;-87
2020/12/03 09:50:57;;;;;;;12.27;7.18;;;17.50;47.90;;;;;;5075017;28;20153;-90
2020/12/03 09:53:24;;;;;;;9.82;7.22;;;17.50;48.30;;;;;;5075217;28;20154;-89
2020/12/03 09:55:50;;;;;;;11.10;7.35;;;17.40;48.10;;;;;;5075377;28;20187;-89
2020/12/03 09:58:28;;;;;;;10.43;6.95;;;17.50;47.50;;;;;;5075408;28;20161;-88
2020/12/03 10:00:57;;;;;;;11.18;7.18;;;17.60;47.80;;;;;;5075067;28;20157;-88
2020/12/03 10:03:44;;;;;;;10.77;7.18;;;17.60;47.60;;;;;;5058460;28;20590;-89
2020/12/03 10:06:30;;;;;;;9.40;6.93;;;17.70;47.50;;;;;;5077785;28;20279;-88
2020/12/03 10:09:07;;;;;;;10.15;6.82;;;17.60;47.60;;;;;;5077265;28;20157;-87
2020/12/03 10:11:52;;;;;;;10.35;7.07;;;17.50;47.80;;;;;;5076212;28;20153;-88
2020/12/03 10:14:48;;;;;;;11.65;7.30;;;17.60;47.50;;;;;;5076589;28;20608;-89
2020/12/03 10:17:25;;;;;;;11.85;7.72;;;17.60;48.10;;;;;;5076733;28;20245;-88
2020/12/03 10:19:52;;;;;;;11.40;7.75;;;17.60;47.70;;;;;;5059331;28;20203;-88
2020/12/03 10:22:18;;;;;;;9.65;7.03;;;17.50;47.70;;;;;;5075928;28;20162;-86
2020/12/03 10:25:14;;;;;;;12.43;7.55;;;17.60;47.50;;;;;;5074379;28;20655;-86
2020/12/03 10:28:08;;;;;;;11.30;7.00;;;17.60;47.40;;;;;;5066662;28;20185;-86
2020/12/03 10:30:36;;;;;;;9.98;7.20;;;17.60;47.50;;;;;;5075767;28;20693;-87
2020/12/03 10:33:16;;;;;;;11.65;7.00;;;17.60;47.30;;;;;;5057592;28;20635;-87
2020/12/03 10:35:50;;;;;;;11.07;7.60;;;17.60;47.30;;;;;;5074397;28;20186;-86
2020/12/03 10:38:25;;;;;;;9.55;6.70;;;17.70;47.00;;;;;;5074982;28;20644;-89
2020/12/03 10:40:55;;;;;;;13.52;7.32;;;17.70;47.20;;;;;;5074698;28;20164;-87
2020/12/03 10:43:29;;;;;;;10.85;7.28;;;17.70;46.90;;;;;;5075608;28;20162;-86
2020/12/03 10:46:06;;;;;;;10.60;6.93;;;17.70;47.60;;;;;;5057627;28;20197;-87
2020/12/03 10:48:43;;;;;;;12.18;7.88;;;17.70;46.80;;;;;;5058634;28;20642;-87
2020/12/03 10:51:09;;;;;;;12.52;8.02;;;17.80;47.10;;;;;;5057416;28;20161;-87
2020/12/03 10:53:37;;;;;;;9.73;7.22;;;17.90;46.80;;;;;;5056980;28;20616;-86
2020/12/03 10:56:07;;;;;;;11.10;7.07;;;17.90;46.20;;;;;;5057192;28;20575;-87
2020/12/03 10:58:47;;;;;;;9.93;7.20;;;17.90;46.70;;;;;;5057392;28;20639;-87
2020/12/03 11:01:31;;;;;;;9.98;7.07;;;17.90;47.50;;;;;;5074114;28;20165;-86
2020/12/03 11:03:59;;;;;;;11.60;7.47;;;17.80;47.20;;;;;;5073527;28;20163;-88
2020/12/03 11:06:29;;;;;;;10.52;7.57;;;17.80;47.10;;;;;;5056767;28;20307;-87
2020/12/03 11:09:16;;;;;;;11.10;7.22;;;17.80;47.40;;;;;;5073277;28;20153;-87
2020/12/03 11:11:43;;;;;;;10.57;7.32;;;17.80;47.30;;;;;;5055969;28;20183;-87
2020/12/03 11:14:13;;;;;;;11.95;7.75;;;17.80;47.30;;;;;;5056542;28;20173;-87
2020/12/03 11:17:02;;;;;;;11.00;7.43;;;17.80;47.30;;;;;;5056977;28;20188;-86
2020/12/03 11:19:29;;;;;;;14.38;7.75;;;17.80;47.50;;;;;;5071000;28;20153;-87
2020/12/03 11:22:18;;;;;;;10.48;7.20;;;17.70;47.30;;;;;;5056510;28;20169;-87
2020/12/03 11:24:51;;;;;;;11.57;7.25;;;17.80;46.80;;;;;;5073965;28;20652;-86
2020/12/03 11:27:18;;;;;;;13.38;7.78;;;17.80;46.80;;;;;;5057386;28;20261;-86
2020/12/03 11:29:44;;;;;;;13.23;7.55;;;17.90;47.00;;;;;;5042948;28;20181;-88
2020/12/03 11:32:19;;;;;;;14.48;8.15;;;17.80;46.70;;;;;;5052887;28;20523;-86
2020/12/03 11:34:46;;;;;;;12.90;7.85;;;17.80;47.20;;;;;;5053394;28;20158;-87
2020/12/03 11:37:13;;;;;;;11.35;7.60;;;17.70;47.50;;;;;;5035799;28;20174;-86
2020/12/03 11:39:49;;;;;;;14.63;7.93;;;17.80;47.10;;;;;;5035854;28;20180;-86
2020/12/03 11:47:56;;;;;;;12.98;8.35;;;17.80;47.10;;;;;;5053534;28;20150;-85
2020/12/03 11:50:21;;;;;;;15.60;7.75;;;17.90;47.00;;;;;;5052342;28;20202;-88
2020/12/03 11:52:47;;;;;;;12.00;7.15;;;17.90;46.60;;;;;;5035429;28;20243;-86
2020/12/03 11:55:21;;;;;;;16.38;7.80;;;17.90;46.90;;;;;;5035017;28;20308;-86
2020/12/03 11:57:48;;;;;;;14.07;7.65;;;17.80;47.00;;;;;;5035787;28;20173;-87
2020/12/03 12:00:22;;;;;;;13.43;7.60;;;17.90;46.80;;;;;;5035721;28;20743;-86
2020/12/03 12:02:54;;;;;;;15.23;7.85;;;17.90;46.90;;;;;;5035389;28;20188;-86
2020/12/03 12:05:33;;;;;;;16.35;8.02;;;17.80;47.00;;;;;;5035242;28;20307;-86
2020/12/03 12:08:27;;;;;;;12.57;7.97;;;17.80;47.00;;;;;;5052001;28;20556;-87
2020/12/03 12:11:20;;;;;;;13.77;7.63;;;17.80;47.40;;;;;;5051859;28;20485;-86
2020/12/03 12:13:46;;;;;;;12.75;7.80;;;17.80;47.10;;;;;;5038663;28;20166;-87
2020/12/03 12:16:12;;;;;;;12.98;7.82;;;17.80;46.90;;;;;;5052238;28;20165;-86
2020/12/03 12:18:39;;;;;;;12.75;7.40;;;17.80;46.80;;;;;;5051802;28;20648;-88
2020/12/03 12:21:07;;;;;;;13.32;7.45;;;17.90;47.00;;;;;;5035154;28;20166;-86
2020/12/03 12:23:34;;;;;;;11.73;7.93;;;17.80;46.90;;;;;;5053294;28;20259;-87
2020/12/03 12:26:00;;;;;;;13.30;8.27;;;17.80;47.10;;;;;;5039295;28;20669;-87
2020/12/03 12:28:35;;;;;;;14.35;8.20;;;17.70;47.10;;;;;;5064324;28;20170;-84
2020/12/03 12:31:01;;;;;;;14.07;8.25;;;17.70;48.00;;;;;;5044921;28;20255;-86
2020/12/03 12:33:29;;;;;;;14.68;8.07;;;17.70;47.20;;;;;;5066608;28;20162;-88
2020/12/03 12:36:04;;;;;;;12.02;7.85;;;17.80;47.20;;;;;;5060048;28;20172;-87
2020/12/03 12:38:30;;;;;;;13.85;8.20;;;17.80;47.10;;;;;;5047905;28;20166;-85
2020/12/03 12:40:58;;;;;;;12.77;8.20;;;17.80;47.10;;;;;;5059493;28;20178;-85
2020/12/03 12:43:26;;;;;;;15.57;8.60;;;17.80;47.20;;;;;;5035404;28;20170;-86
2020/12/03 12:45:53;;;;;;;13.73;7.82;;;17.70;46.90;;;;;;5035494;28;20217;-86
2020/12/03 12:48:19;;;;;;;12.80;8.38;;;17.80;46.70;;;;;;5035428;28;20493;-86
2020/12/03 12:50:45;;;;;;;13.15;7.65;;;17.90;46.60;;;;;;5040780;28;20166;-85
2020/12/03 12:53:12;;;;;;;11.52;8.07;;;17.90;46.80;;;;;;5054047;28;20548;-86
2020/12/03 12:55:39;;;;;;;11.20;7.93;;;17.90;46.40;;;;;;5069900;28;20516;-86
2020/12/03 12:58:07;;;;;;;9.38;7.30;;;17.90;46.50;;;;;;5054335;28;20162;-86
2020/12/03 13:00:33;;;;;;;11.30;8.20;;;17.90;46.60;;;;;;5039011;28;20189;-87
2020/12/03 13:03:00;;;;;;;11.98;8.63;;;17.80;46.90;;;;;;5054355;28;20625;-87
2020/12/03 13:05:25;;;;;;;11.95;8.18;;;17.90;46.50;;;;;;5056707;28;20228;-87
2020/12/03 13:07:52;;;;;;;12.80;8.18;;;18.00;46.40;;;;;;5040999;28;20185;-88
2020/12/03 13:10:18;;;;;;;11.05;7.80;;;17.90;46.40;;;;;;5060168;28;20150;-87
2020/12/03 13:12:44;;;;;;;12.30;8.10;;;17.90;46.80;;;;;;5059172;28;20167;-88
2020/12/03 13:15:12;;;;;;;11.00;8.30;;;17.90;46.80;;;;;;5044864;28;20261;-88
2020/12/03 13:17:47;;;;;;;11.05;7.97;;;17.90;46.80;;;;;;5063112;28;20250;-86